Time;durP1;ratioP1;P1;durP2;ratioP2;P2;SDS_P1;SDS_P2;PMS_P1;PMS_P2;Temp;Humidity;BMP_temperature;BMP_pressure;BME280_temperature;BME280_humidity;BME280_pressure;Samples;Min_cycle;Max_cycle;Signal;HPM_P1;HPM_P2
2023/03/21 00:01:21;;;;;;;4.65;2.55;;;;;;;;;;4954369;29;20408;-69
2023/03/21 00:03:48;;;;;;;9.57;3.20;;;;;;;;;;4954113;29;20035;-69
2023/03/21 00:06:14;;;;;;;6.95;3.10;;;;;;;;;;4953940;29;20485;-69
2023/03/21 00:08:41;;;;;;;4.55;2.80;;;;;;;;;;4954263;29;20035;-69
2023/03/21 00:11:08;;;;;;;3.90;2.70;;;;;;;;;;4954173;29;20538;-69
2023/03/21 00:13:37;;;;;;;5.40;3.17;;;;;;;;;;4937491;29;20023;-69
2023/03/21 00:16:08;;;;;;;4.97;2.83;;;;;;;;;;4954179;29;20019;-69
2023/03/21 00:18:41;;;;;;;4.80;2.55;;;;;;;;;;4954133;29;20024;-69
2023/03/21 00:21:08;;;;;;;4.90;2.78;;;;;;;;;;4953907;29;20429;-69
2023/03/21 00:23:35;;;;;;;4.75;2.30;;;;;;;;;;4953961;29;20037;-69
2023/03/21 00:26:01;;;;;;;5.13;2.60;;;;;;;;;;4953977;29;20037;-69
2023/03/21 00:28:28;;;;;;;5.18;3.00;;;;;;;;;;4953850;29;20179;-69
2023/03/21 00:30:58;;;;;;;6.13;2.60;;;;;;;;;;4954082;29;20047;-69
2023/03/21 00:33:25;;;;;;;3.50;2.40;;;;;;;;;;4954208;29;20039;-69
2023/03/21 00:35:52;;;;;;;4.57;2.90;;;;;;;;;;4946764;29;20024;-69
2023/03/21 00:38:19;;;;;;;4.32;2.80;;;;;;;;;;4934956;29;20032;-69
2023/03/21 00:40:45;;;;;;;5.97;2.58;;;;;;;;;;4934921;29;20028;-69
2023/03/21 00:43:13;;;;;;;4.90;2.42;;;;;;;;;;4934766;29;20036;-69
2023/03/21 00:45:40;;;;;;;8.20;2.75;;;;;;;;;;4934798;29;20024;-69
2023/03/21 00:48:06;;;;;;;3.50;2.45;;;;;;;;;;4934687;29;20464;-69
2023/03/21 00:50:33;;;;;;;8.30;2.53;;;;;;;;;;4934561;29;20388;-69
2023/03/21 00:52:59;;;;;;;4.78;2.80;;;;;;;;;;4934854;29;20035;-69
2023/03/21 00:55:27;;;;;;;5.15;2.50;;;;;;;;;;4934555;29;20514;-69
2023/03/21 00:57:54;;;;;;;3.30;2.58;;;;;;;;;;4934988;29;20043;-69
2023/03/21 01:00:21;;;;;;;4.72;2.60;;;;;;;;;;4951107;29;20484;-69
2023/03/21 01:02:56;;;;;;;4.22;2.55;;;;;;;;;;4956995;28;20027;-69
2023/03/21 01:08:13;;;;;;;4.00;2.50;;;;;;;;;;4957438;29;20392;-69
2023/03/21 01:10:41;;;;;;;5.47;2.60;;;;;;;;;;4957172;29;20025;-69
2023/03/21 01:13:08;;;;;;;3.55;2.15;;;;;;;;;;4957541;29;20023;-69
2023/03/21 01:15:35;;;;;;;3.17;2.70;;;;;;;;;;4957630;29;20050;-70
2023/03/21 01:18:01;;;;;;;5.97;2.67;;;;;;;;;;4957133;29;20031;-69
2023/03/21 01:20:27;;;;;;;6.28;2.40;;;;;;;;;;4957566;29;20023;-69
2023/03/21 01:22:54;;;;;;;3.97;2.50;;;;;;;;;;4957132;29;20031;-69
2023/03/21 01:25:20;;;;;;;4.18;2.42;;;;;;;;;;4957190;29;20023;-69
2023/03/21 01:27:46;;;;;;;5.20;2.50;;;;;;;;;;4957037;29;20043;-69
2023/03/21 01:30:13;;;;;;;5.63;2.70;;;;;;;;;;4956944;29;20027;-69
2023/03/21 01:32:39;;;;;;;6.85;2.45;;;;;;;;;;4956536;29;20043;-69
2023/03/21 01:35:05;;;;;;;8.43;2.28;;;;;;;;;;4939955;29;20031;-69
2023/03/21 01:37:32;;;;;;;4.72;2.53;;;;;;;;;;4956961;29;20035;-69
2023/03/21 01:39:58;;;;;;;4.72;2.65;;;;;;;;;;4956982;29;20049;-69
2023/03/21 01:42:25;;;;;;;6.85;2.83;;;;;;;;;;4956906;29;20024;-69
2023/03/21 01:44:56;;;;;;;4.15;2.60;;;;;;;;;;4956742;29;20037;-68
2023/03/21 01:47:22;;;;;;;;;;;;;;;;;;4956983;29;20492;-69
2023/03/21 01:49:51;;;;;;;4.60;2.53;;;;;;;;;;4956699;29;19964;-69
2023/03/21 01:52:19;;;;;;;3.97;2.40;;;;;;;;;;4956411;29;20500;-69
2023/03/21 01:54:47;;;;;;;5.57;2.58;;;;;;;;;;4956657;29;20028;-69
2023/03/21 01:57:16;;;;;;;4.30;2.03;;;;;;;;;;4956433;29;20027;-69
2023/03/21 01:59:44;;;;;;;4.75;2.35;;;;;;;;;;4956323;29;20027;-69
2023/03/21 02:02:14;;;;;;;4.30;2.60;;;;;;;;;;4956050;29;20053;-69
2023/03/21 02:04:40;;;;;;;4.00;2.30;;;;;;;;;;4956382;29;20492;-69
2023/03/21 02:07:06;;;;;;;5.63;2.63;;;;;;;;;;4956332;29;20039;-69
2023/03/21 02:09:34;;;;;;;4.22;2.67;;;;;;;;;;4956538;29;20035;-69
2023/03/21 02:12:01;;;;;;;6.45;2.50;;;;;;;;;;4956477;29;20037;-69
2023/03/21 02:14:29;;;;;;;4.95;2.85;;;;;;;;;;4937828;29;20291;-69
2023/03/21 02:17:03;;;;;;;3.75;2.78;;;;;;;;;;4955812;29;20024;-69
2023/03/21 02:19:58;;;;;;;3.85;2.53;;;;;;;;;;4956124;29;20038;-69
2023/03/21 02:22:32;;;;;;;4.03;2.40;;;;;;;;;;4955958;29;20023;-68
2023/03/21 02:25:17;;;;;;;3.63;2.40;;;;;;;;;;4956202;29;20511;-69
2023/03/21 02:27:49;;;;;;;6.50;2.40;;;;;;;;;;4955601;29;20404;-69
2023/03/21 02:30:25;;;;;;;8.20;2.30;;;;;;;;;;4955885;29;20026;-69
2023/03/21 02:32:51;;;;;;;3.08;2.25;;;;;;;;;;4955871;29;20031;-69
2023/03/21 02:35:20;;;;;;;5.43;2.58;;;;;;;;;;4955851;29;20030;-69
2023/03/21 02:38:07;;;;;;;3.83;2.10;;;;;;;;;;4955976;29;20061;-69
2023/03/21 02:40:43;;;;;;;7.35;2.60;;;;;;;;;;4955904;29;20015;-69
2023/03/21 02:43:09;;;;;;;2.30;2.10;;;;;;;;;;4955846;29;20030;-69
2023/03/21 02:45:39;;;;;;;3.10;2.17;;;;;;;;;;4955482;29;20028;-69
2023/03/21 02:48:09;;;;;;;4.40;2.63;;;;;;;;;;4955715;29;20031;-69
2023/03/21 02:50:56;;;;;;;6.07;2.35;;;;;;;;;;4955700;29;20034;-69
2023/03/21 02:53:25;;;;;;;4.43;2.30;;;;;;;;;;4955430;29;20388;-69
2023/03/21 02:55:52;;;;;;;5.57;2.30;;;;;;;;;;4955382;29;20023;-69
2023/03/21 02:58:20;;;;;;;5.95;2.22;;;;;;;;;;4955609;29;20029;-69
2023/03/21 03:00:48;;;;;;;5.32;2.13;;;;;;;;;;4955224;29;20020;-69
2023/03/21 03:03:15;;;;;;;5.00;2.10;;;;;;;;;;4955257;29;20015;-69
2023/03/21 03:05:49;;;;;;;5.32;1.85;;;;;;;;;;4955223;29;20403;-69
2023/03/21 03:08:36;;;;;;;5.95;2.17;;;;;;;;;;4955090;29;20085;-69
2023/03/21 03:11:08;;;;;;;5.57;2.60;;;;;;;;;;4954953;29;20047;-69
2023/03/21 03:13:45;;;;;;;3.38;2.13;;;;;;;;;;4955033;29;20488;-69
2023/03/21 03:16:31;;;;;;;3.92;2.30;;;;;;;;;;4955094;29;20028;-69
2023/03/21 03:19:02;;;;;;;5.53;2.20;;;;;;;;;;4955194;29;20035;-69
2023/03/21 03:21:32;;;;;;;4.40;2.22;;;;;;;;;;4954986;29;20027;-69
2023/03/21 03:24:01;;;;;;;4.72;2.30;;;;;;;;;;4954632;28;20404;-69
2023/03/21 03:26:30;;;;;;;5.47;2.30;;;;;;;;;;4954752;29;20027;-69
2023/03/21 03:28:58;;;;;;;4.43;2.38;;;;;;;;;;4954880;29;20027;-69
2023/03/21 03:31:26;;;;;;;4.68;2.30;;;;;;;;;;4954913;29;20040;-69
2023/03/21 03:33:55;;;;;;;3.80;2.28;;;;;;;;;;4954746;29;20031;-69
2023/03/21 03:36:24;;;;;;;3.53;2.35;;;;;;;;;;4954804;29;20027;-69
2023/03/21 03:38:51;;;;;;;5.85;2.38;;;;;;;;;;4954612;29;20031;-69
2023/03/21 03:41:19;;;;;;;7.05;2.30;;;;;;;;;;4954632;29;20027;-69
2023/03/21 03:43:49;;;;;;;3.47;2.35;;;;;;;;;;4953076;29;20023;-69
2023/03/21 03:46:30;;;;;;;4.10;2.25;;;;;;;;;;4954629;29;20392;-69
2023/03/21 03:49:00;;;;;;;4.38;2.60;;;;;;;;;;4954572;29;20037;-69
2023/03/21 03:51:36;;;;;;;7.32;2.72;;;;;;;;;;4954423;29;20025;-69
2023/03/21 03:54:05;;;;;;;4.70;2.67;;;;;;;;;;4954486;29;20037;-69
2023/03/21 03:56:32;;;;;;;6.88;2.75;;;;;;;;;;4954328;29;20037;-69
2023/03/21 03:59:01;;;;;;;3.50;2.47;;;;;;;;;;4954062;29;20031;-69
2023/03/21 04:01:27;;;;;;;7.25;2.55;;;;;;;;;;4954636;29;20033;-69
2023/03/21 04:03:54;;;;;;;4.00;2.50;;;;;;;;;;4954303;29;20023;-69
2023/03/21 04:06:21;;;;;;;4.80;3.17;;;;;;;;;;4954233;29;20488;-68
2023/03/21 04:08:47;;;;;;;5.20;2.60;;;;;;;;;;4954162;29;20035;-69
2023/03/21 04:11:15;;;;;;;6.05;2.78;;;;;;;;;;4954428;29;20042;-69
2023/03/21 04:13:41;;;;;;;5.30;2.28;;;;;;;;;;4954090;29;20027;-69
2023/03/21 04:16:08;;;;;;;3.42;2.17;;;;;;;;;;4954109;29;20029;-69
2023/03/21 04:18:34;;;;;;;6.97;2.50;;;;;;;;;;4954072;29;20026;-69
2023/03/21 04:21:01;;;;;;;4.75;2.60;;;;;;;;;;4954118;29;20023;-69
2023/03/21 04:23:28;;;;;;;3.40;2.28;;;;;;;;;;4954391;29;20034;-69
2023/03/21 04:25:54;;;;;;;4.18;2.58;;;;;;;;;;4953914;29;20023;-69
2023/03/21 04:28:20;;;;;;;5.10;2.33;;;;;;;;;;4953613;29;20053;-69
2023/03/21 04:30:48;;;;;;;4.03;2.35;;;;;;;;;;4954151;29;20035;-69
2023/03/21 04:33:15;;;;;;;4.43;2.28;;;;;;;;;;4953932;29;20492;-69
2023/03/21 04:35:41;;;;;;;3.55;2.42;;;;;;;;;;4953978;28;20034;-69
2023/03/21 04:38:07;;;;;;;4.95;2.10;;;;;;;;;;4957333;29;20026;-69
2023/03/21 04:40:34;;;;;;;5.10;2.25;;;;;;;;;;4958181;29;20031;-69
2023/03/21 04:43:00;;;;;;;5.85;2.45;;;;;;;;;;4957785;29;20027;-69
2023/03/21 04:45:26;;;;;;;5.97;2.55;;;;;;;;;;4957695;29;20035;-69
2023/03/21 04:47:53;;;;;;;5.55;2.70;;;;;;;;;;4956462;29;20046;-69
2023/03/21 04:50:19;;;;;;;6.70;3.00;;;;;;;;;;4957849;29;20048;-69
2023/03/21 04:52:45;;;;;;;4.97;2.05;;;;;;;;;;4957699;29;20039;-69
2023/03/21 04:55:13;;;;;;;3.92;2.47;;;;;;;;;;4957769;29;20048;-69
2023/03/21 04:57:40;;;;;;;8.57;2.40;;;;;;;;;;4957704;29;20053;-68
2023/03/21 05:00:13;;;;;;;4.32;2.42;;;;;;;;;;4957673;29;20011;-68
2023/03/21 05:02:39;;;;;;;4.70;2.60;;;;;;;;;;4957843;29;20031;-68
2023/03/21 05:05:09;;;;;;;4.25;2.30;;;;;;;;;;4957603;29;20031;-69
2023/03/21 05:07:37;;;;;;;3.53;2.42;;;;;;;;;;4957380;29;20508;-69
2023/03/21 05:10:04;;;;;;;3.60;2.30;;;;;;;;;;4957305;29;20373;-69
2023/03/21 05:12:30;;;;;;;4.03;2.65;;;;;;;;;;4956433;29;20037;-69
2023/03/21 05:14:56;;;;;;;4.25;2.22;;;;;;;;;;4957081;29;20019;-69
2023/03/21 05:17:23;;;;;;;2.72;2.10;;;;;;;;;;4957543;29;20085;-69
2023/03/21 05:19:51;;;;;;;3.75;2.40;;;;;;;;;;4957208;29;20357;-69
2023/03/21 05:22:18;;;;;;;3.85;2.10;;;;;;;;;;4957202;29;20033;-69
2023/03/21 05:24:49;;;;;;;4.28;2.30;;;;;;;;;;4957061;29;20027;-69
2023/03/21 05:27:34;;;;;;;4.30;2.25;;;;;;;;;;4957250;29;20058;-69
2023/03/21 05:30:01;;;;;;;5.15;1.90;;;;;;;;;;4957421;29;20027;-69
2023/03/21 05:32:27;;;;;;;5.05;2.40;;;;;;;;;;4956868;29;20061;-69
2023/03/21 05:34:54;;;;;;;4.97;2.40;;;;;;;;;;4956802;29;20023;-69
2023/03/21 05:37:20;;;;;;;5.20;2.70;;;;;;;;;;4957003;29;20496;-69
2023/03/21 05:39:47;;;;;;;3.95;2.58;;;;;;;;;;4956565;29;20031;-69
2023/03/21 05:42:13;;;;;;;4.63;2.65;;;;;;;;;;4956515;29;20023;-69
2023/03/21 05:44:39;;;;;;;4.90;2.47;;;;;;;;;;4956870;29;20031;-69
2023/03/21 05:47:07;;;;;;;2.88;2.20;;;;;;;;;;4956518;28;20039;-69
2023/03/21 05:49:33;;;;;;;4.57;2.58;;;;;;;;;;4956583;29;20019;-69
2023/03/21 05:52:00;;;;;;;4.55;2.42;;;;;;;;;;4956748;29;20031;-69
2023/03/21 05:54:26;;;;;;;4.88;2.83;;;;;;;;;;4956606;29;20019;-70
2023/03/21 05:56:52;;;;;;;6.28;2.97;;;;;;;;;;4956578;29;20027;-69
2023/03/21 05:59:19;;;;;;;3.67;2.65;;;;;;;;;;4956668;29;20050;-69
2023/03/21 06:01:45;;;;;;;7.75;3.13;;;;;;;;;;4956399;29;20029;-69
2023/03/21 06:04:12;;;;;;;9.32;3.55;;;;;;;;;;4956174;29;20384;-69
2023/03/21 06:06:38;;;;;;;5.28;2.13;;;;;;;;;;4956299;29;20023;-69
2023/03/21 06:09:05;;;;;;;6.70;2.45;;;;;;;;;;4955912;29;20031;-69
2023/03/21 06:11:33;;;;;;;3.38;2.38;;;;;;;;;;4956293;29;20023;-68
2023/03/21 06:14:00;;;;;;;5.80;2.40;;;;;;;;;;4956533;29;20039;-69
2023/03/21 06:16:27;;;;;;;7.80;2.67;;;;;;;;;;4956070;29;20027;-69
2023/03/21 06:18:54;;;;;;;6.35;2.42;;;;;;;;;;4956149;29;20070;-69
2023/03/21 06:21:20;;;;;;;6.57;2.42;;;;;;;;;;4956097;29;20035;-68
2023/03/21 06:23:50;;;;;;;4.97;2.42;;;;;;;;;;4955689;29;20437;-69
2023/03/21 06:26:21;;;;;;;3.35;2.20;;;;;;;;;;4955899;29;20558;-69
2023/03/21 06:28:51;;;;;;;5.45;2.15;;;;;;;;;;4938656;29;20046;-69
2023/03/21 06:31:21;;;;;;;3.78;2.40;;;;;;;;;;4955997;29;20102;-69
2023/03/21 06:33:48;;;;;;;6.45;2.60;;;;;;;;;;4938795;29;20039;-69
2023/03/21 06:36:14;;;;;;;6.30;2.53;;;;;;;;;;4955953;29;20050;-69
2023/03/21 06:38:40;;;;;;;6.38;2.97;;;;;;;;;;4955501;29;20411;-69
2023/03/21 06:41:07;;;;;;;3.55;2.55;;;;;;;;;;4955590;29;20419;-69
2023/03/21 06:43:34;;;;;;;5.90;3.60;;;;;;;;;;4934453;29;20032;-69
2023/03/21 06:46:00;;;;;;;5.70;3.13;;;;;;;;;;4915786;29;20056;-69
2023/03/21 06:48:27;;;;;;;7.70;3.33;;;;;;;;;;4909468;29;20047;-69
2023/03/21 06:50:55;;;;;;;6.68;3.13;;;;;;;;;;4918081;29;20054;-69
2023/03/21 06:53:26;;;;;;;8.13;3.72;;;;;;;;;;4935978;29;20385;-69
2023/03/21 06:55:53;;;;;;;5.68;2.85;;;;;;;;;;4934869;29;20046;-68
2023/03/21 06:58:20;;;;;;;6.70;2.95;;;;;;;;;;4936272;29;20034;-69
2023/03/21 07:00:46;;;;;;;4.82;2.47;;;;;;;;;;4955086;29;20031;-69
2023/03/21 07:03:13;;;;;;;4.90;2.55;;;;;;;;;;4955960;29;20041;-69
2023/03/21 07:05:40;;;;;;;7.70;3.00;;;;;;;;;;4955589;29;20439;-69
2023/03/21 07:08:09;;;;;;;9.45;2.55;;;;;;;;;;4955491;29;20492;-69
2023/03/21 07:10:38;;;;;;;7.30;3.45;;;;;;;;;;4936282;29;20024;-69
2023/03/21 07:13:05;;;;;;;6.28;3.33;;;;;;;;;;4939833;29;20035;-69
2023/03/21 07:15:32;;;;;;;5.50;2.78;;;;;;;;;;4938007;29;20018;-68
2023/03/21 07:17:58;;;;;;;6.68;3.50;;;;;;;;;;4921012;29;20035;-67
2023/03/21 07:20:25;;;;;;;3.92;2.33;;;;;;;;;;4944269;29;20409;-68
2023/03/21 07:22:52;;;;;;;5.03;2.30;;;;;;;;;;4941083;29;20031;-69
2023/03/21 07:25:19;;;;;;;6.68;2.17;;;;;;;;;;4941333;29;20028;-69
2023/03/21 07:27:45;;;;;;;6.32;2.53;;;;;;;;;;4935680;29;20107;-77
2023/03/21 07:30:12;;;;;;;7.82;2.38;;;;;;;;;;4935537;29;20050;-74
2023/03/21 07:32:39;;;;;;;10.98;2.63;;;;;;;;;;4930517;29;20044;-75
2023/03/21 07:35:06;;;;;;;9.85;2.50;;;;;;;;;;4924470;29;20015;-70
2023/03/21 07:37:33;;;;;;;3.03;1.88;;;;;;;;;;4935076;29;20054;-72
2023/03/21 07:39:59;;;;;;;3.88;1.83;;;;;;;;;;4933699;29;20024;-77
2023/03/21 17:29:23;;;;;;;4.57;1.77;;;;;;;;;;5069193;28;20387;-70
2023/03/21 17:31:50;;;;;;;4.15;2.28;;;;;;;;;;5069673;28;20501;-71
2023/03/21 17:34:16;;;;;;;3.00;1.40;;;;;;;;;;5069269;28;20432;-67
2023/03/21 17:36:45;;;;;;;4.03;1.55;;;;;;;;;;5067448;28;20085;-66
2023/03/21 17:39:17;;;;;;;4.32;1.67;;;;;;;;;;5069738;28;20031;-65
2023/03/21 17:41:44;;;;;;;5.00;1.70;;;;;;;;;;5069544;28;20025;-66
2023/03/21 17:44:10;;;;;;;4.70;2.08;;;;;;;;;;5068691;28;20047;-66
2023/03/21 17:46:36;;;;;;;3.17;2.13;;;;;;;;;;5069057;28;20032;-66
2023/03/21 17:49:03;;;;;;;3.28;1.90;;;;;;;;;;5069122;28;20037;-66
2023/03/21 17:51:31;;;;;;;6.95;2.38;;;;;;;;;;5068913;28;20029;-65
2023/03/21 17:53:58;;;;;;;5.93;2.20;;;;;;;;;;5067680;28;20082;-66
2023/03/21 17:56:26;;;;;;;4.88;2.40;;;;;;;;;;5068929;28;20023;-66
2023/03/21 17:58:53;;;;;;;8.00;3.17;;;;;;;;;;5068527;28;20024;-66
2023/03/21 18:01:19;;;;;;;9.18;4.60;;;;;;;;;;5069223;28;20021;-66
2023/03/21 18:03:46;;;;;;;13.05;5.63;;;;;;;;;;5069002;28;20029;-65
2023/03/21 18:06:14;;;;;;;5.07;3.17;;;;;;;;;;5068660;28;20013;-66
2023/03/21 18:08:41;;;;;;;6.95;2.47;;;;;;;;;;5068673;28;20032;-66
2023/03/21 18:11:09;;;;;;;4.13;2.08;;;;;;;;;;5068481;28;20029;-66
2023/03/21 18:13:36;;;;;;;8.95;2.08;;;;;;;;;;5068238;28;20020;-66
2023/03/21 18:16:03;;;;;;;4.88;2.42;;;;;;;;;;5068471;28;20021;-66
2023/03/21 18:18:29;;;;;;;4.25;2.50;;;;;;;;;;5068406;28;20017;-65
2023/03/21 18:20:56;;;;;;;4.88;2.78;;;;;;;;;;5067429;28;20033;-66
2023/03/21 18:23:22;;;;;;;5.20;2.80;;;;;;;;;;5068390;28;20025;-66
2023/03/21 18:25:48;;;;;;;8.45;3.97;;;;;;;;;;5068333;28;20477;-65
2023/03/21 18:28:15;;;;;;;13.10;8.05;;;;;;;;;;5067667;28;20059;-65
2023/03/21 18:30:41;;;;;;;15.38;9.07;;;;;;;;;;5068723;28;20027;-65
2023/03/21 18:33:08;;;;;;;18.10;11.60;;;;;;;;;;5068205;28;20500;-65
2023/03/21 18:35:34;;;;;;;11.18;7.13;;;;;;;;;;5068231;28;20033;-66
2023/03/21 18:38:01;;;;;;;24.10;13.00;;;;;;;;;;5068238;28;20031;-65
2023/03/21 18:40:28;;;;;;;10.35;6.25;;;;;;;;;;5056554;28;20017;-65
2023/03/21 18:42:54;;;;;;;7.07;3.53;;;;;;;;;;5054750;28;20021;-66
2023/03/21 18:45:23;;;;;;;13.60;7.80;;;;;;;;;;5054983;28;20066;-66
2023/03/21 18:47:51;;;;;;;19.90;9.68;;;;;;;;;;5054663;28;20021;-65
2023/03/21 18:50:18;;;;;;;15.88;9.35;;;;;;;;;;5054823;28;20389;-66
2023/03/21 18:52:45;;;;;;;9.05;4.88;;;;;;;;;;5054921;28;20021;-65
2023/03/21 18:55:13;;;;;;;12.45;6.28;;;;;;;;;;5054451;28;20024;-66
2023/03/21 18:57:40;;;;;;;12.85;6.85;;;;;;;;;;5054323;28;20428;-66
2023/03/21 19:00:11;;;;;;;13.95;7.30;;;;;;;;;;5054308;28;20504;-66
2023/03/21 19:02:41;;;;;;;10.50;4.80;;;;;;;;;;5054588;28;20029;-66
2023/03/21 19:05:08;;;;;;;5.10;2.35;;;;;;;;;;5054175;28;20021;-65
2023/03/21 19:07:34;;;;;;;4.25;2.30;;;;;;;;;;5054303;28;20031;-66
2023/03/21 19:10:01;;;;;;;5.10;3.22;;;;;;;;;;5054267;28;20031;-65
2023/03/21 19:12:27;;;;;;;8.70;4.07;;;;;;;;;;5054082;28;20024;-66
2023/03/21 19:14:54;;;;;;;6.90;2.92;;;;;;;;;;5054431;28;20025;-66
2023/03/21 19:17:21;;;;;;;6.78;2.85;;;;;;;;;;5054078;28;20406;-65
2023/03/21 19:19:47;;;;;;;7.93;2.97;;;;;;;;;;5054171;28;20027;-66
2023/03/21 19:22:14;;;;;;;16.70;8.52;;;;;;;;;;5053992;28;20498;-65
2023/03/21 19:24:41;;;;;;;19.83;12.05;;;;;;;;;;5053979;28;20025;-65
2023/03/21 19:27:08;;;;;;;14.27;10.70;;;;;;;;;;5053821;28;20025;-66
2023/03/21 19:29:35;;;;;;;11.73;8.70;;;;;;;;;;5053726;28;20024;-66
2023/03/21 19:32:01;;;;;;;7.38;3.72;;;;;;;;;;5054291;28;20029;-66
2023/03/21 19:34:28;;;;;;;5.97;2.63;;;;;;;;;;5053768;28;20033;-66
2023/03/21 19:36:56;;;;;;;4.57;2.20;;;;;;;;;;5053971;28;20070;-66
2023/03/21 19:39:23;;;;;;;4.43;1.92;;;;;;;;;;5054051;28;20039;-66
2023/03/21 19:41:51;;;;;;;6.30;2.53;;;;;;;;;;5053359;28;20493;-65
2023/03/21 19:44:18;;;;;;;3.25;2.25;;;;;;;;;;5053812;28;20029;-66
2023/03/21 19:46:44;;;;;;;9.75;5.15;;;;;;;;;;5053682;28;20416;-65
2023/03/21 19:49:11;;;;;;;13.65;8.82;;;;;;;;;;5053554;28;20029;-65
2023/03/21 19:51:37;;;;;;;11.77;8.55;;;;;;;;;;5052499;28;20027;-65
2023/03/21 19:54:05;;;;;;;11.32;5.93;;;;;;;;;;5053699;28;20021;-65
2023/03/21 19:56:31;;;;;;;14.18;4.47;;;;;;;;;;5053417;28;20027;-65
2023/03/21 19:58:58;;;;;;;10.07;5.13;;;;;;;;;;5053223;28;20047;-66
2023/03/21 20:01:24;;;;;;;12.05;5.30;;;;;;;;;;5053441;28;20021;-66
2023/03/21 20:03:51;;;;;;;11.57;5.00;;;;;;;;;;5053541;28;20032;-65
2023/03/21 20:06:18;;;;;;;19.17;8.55;;;;;;;;;;5051912;28;20504;-66
2023/03/21 20:08:44;;;;;;;10.05;5.65;;;;;;;;;;5053173;28;20154;-66
2023/03/21 20:11:11;;;;;;;12.48;5.38;;;;;;;;;;5053093;28;20031;-66
2023/03/21 20:13:38;;;;;;;14.23;4.80;;;;;;;;;;5052974;28;20066;-65
2023/03/21 20:16:05;;;;;;;17.35;10.25;;;;;;;;;;5053025;28;20379;-65
2023/03/21 20:18:33;;;;;;;14.35;9.32;;;;;;;;;;5052898;28;20039;-65
2023/03/21 20:21:00;;;;;;;10.32;6.28;;;;;;;;;;5052939;28;20474;-66
2023/03/21 20:23:27;;;;;;;24.33;11.32;;;;;;;;;;5052621;28;20017;-66
2023/03/21 20:25:53;;;;;;;7.90;5.40;;;;;;;;;;5053022;28;20025;-65
2023/03/21 20:28:19;;;;;;;5.43;3.78;;;;;;;;;;5052743;28;20049;-65
2023/03/21 20:30:57;;;;;;;7.13;3.47;;;;;;;;;;5052776;28;20078;-65
2023/03/21 20:33:23;;;;;;;4.47;2.78;;;;;;;;;;5052981;28;20027;-66
2023/03/21 20:35:54;;;;;;;7.00;3.30;;;;;;;;;;5052562;28;20023;-65
2023/03/21 20:38:20;;;;;;;10.93;5.47;;;;;;;;;;5051091;28;20037;-66
2023/03/21 20:40:47;;;;;;;14.07;8.00;;;;;;;;;;5051432;28;20027;-66
2023/03/21 20:43:13;;;;;;;13.80;7.60;;;;;;;;;;5053319;28;20028;-65
2023/03/21 20:45:40;;;;;;;7.05;3.75;;;;;;;;;;5052494;28;20025;-65
2023/03/21 20:48:06;;;;;;;36.88;24.33;;;;;;;;;;5052631;28;20037;-66
2023/03/21 20:50:34;;;;;;;28.08;17.63;;;;;;;;;;5052384;28;20027;-65
2023/03/21 20:53:00;;;;;;;54.38;35.42;;;;;;;;;;5052438;28;20032;-65
2023/03/21 20:55:27;;;;;;;36.33;22.02;;;;;;;;;;5052220;28;20023;-66
2023/03/21 20:57:53;;;;;;;17.45;8.63;;;;;;;;;;5052151;28;20043;-65
2023/03/21 21:00:21;;;;;;;12.20;6.72;;;;;;;;;;5052286;28;20017;-64
2023/03/21 21:02:48;;;;;;;17.25;6.35;;;;;;;;;;5052113;28;20023;-63
2023/03/21 21:05:14;;;;;;;16.73;7.05;;;;;;;;;;5052136;28;20405;-63
2023/03/21 21:07:42;;;;;;;17.42;7.38;;;;;;;;;;5052005;28;20032;-64
2023/03/21 21:10:14;;;;;;;16.88;7.80;;;;;;;;;;5052372;28;20027;-65
2023/03/21 21:12:44;;;;;;;16.25;7.18;;;;;;;;;;5050840;28;20374;-65
2023/03/21 21:15:11;;;;;;;14.55;7.03;;;;;;;;;;5052285;28;20024;-65
2023/03/21 21:17:38;;;;;;;12.00;5.63;;;;;;;;;;5050759;28;20033;-65
2023/03/21 21:20:15;;;;;;;14.32;7.20;;;;;;;;;;5052359;28;20031;-65
2023/03/21 21:22:42;;;;;;;12.13;7.35;;;;;;;;;;5052112;28;20029;-65
2023/03/21 21:25:09;;;;;;;19.00;8.43;;;;;;;;;;5050772;28;20024;-65
2023/03/21 21:27:35;;;;;;;15.48;7.68;;;;;;;;;;5051918;28;20051;-66
2023/03/21 21:30:01;;;;;;;50.63;28.50;;;;;;;;;;5052171;28;20029;-65
2023/03/21 21:32:28;;;;;;;20.45;11.30;;;;;;;;;;5051943;28;20025;-65
2023/03/21 21:34:56;;;;;;;12.18;6.30;;;;;;;;;;5051887;28;20487;-65
2023/03/21 21:37:22;;;;;;;37.30;18.20;;;;;;;;;;5051792;28;20062;-65
2023/03/21 21:39:49;;;;;;;12.80;6.35;;;;;;;;;;5051850;28;20027;-65
2023/03/21 21:42:15;;;;;;;11.40;5.05;;;;;;;;;;5051851;28;20013;-65
2023/03/21 21:44:43;;;;;;;9.18;3.78;;;;;;;;;;5052143;28;20027;-65
2023/03/21 21:47:10;;;;;;;47.25;23.63;;;;;;;;;;5051679;28;20478;-65
2023/03/21 21:49:37;;;;;;;8.75;3.30;;;;;;;;;;5051872;28;20035;-65
2023/03/21 21:52:04;;;;;;;27.90;15.40;;;;;;;;;;5051584;28;20029;-65
2023/03/21 21:54:33;;;;;;;17.13;8.68;;;;;;;;;;5051634;28;20017;-65
2023/03/21 21:56:59;;;;;;;22.10;13.70;;;;;;;;;;5051805;28;20482;-65
2023/03/21 21:59:26;;;;;;;10.77;4.53;;;;;;;;;;5051528;28;20039;-65
2023/03/21 22:01:52;;;;;;;11.18;5.03;;;;;;;;;;5051654;28;20021;-65
2023/03/21 22:04:26;;;;;;;7.60;4.05;;;;;;;;;;5051501;28;20489;-65
2023/03/21 22:06:56;;;;;;;7.30;3.30;;;;;;;;;;5051404;28;20473;-65
2023/03/21 22:09:22;;;;;;;6.93;3.00;;;;;;;;;;5051551;28;20017;-65
2023/03/21 22:11:49;;;;;;;6.80;3.70;;;;;;;;;;5051560;28;20090;-65
2023/03/21 22:14:15;;;;;;;6.65;3.40;;;;;;;;;;5051977;28;20478;-65
2023/03/21 22:16:42;;;;;;;8.30;3.55;;;;;;;;;;5055360;28;20032;-65
2023/03/21 22:19:09;;;;;;;8.80;3.92;;;;;;;;;;5055176;28;20055;-65
2023/03/21 22:21:35;;;;;;;10.82;3.83;;;;;;;;;;5055034;28;20032;-65
2023/03/21 22:24:01;;;;;;;6.93;4.20;;;;;;;;;;5055380;28;20037;-65
2023/03/21 22:26:28;;;;;;;7.65;4.03;;;;;;;;;;5055156;28;20032;-65
2023/03/21 22:28:54;;;;;;;6.03;3.60;;;;;;;;;;5054891;28;20052;-65
2023/03/21 22:31:21;;;;;;;6.13;3.22;;;;;;;;;;5055029;28;20028;-65
2023/03/21 22:33:48;;;;;;;5.65;3.53;;;;;;;;;;5054670;28;20037;-65
2023/03/21 22:36:15;;;;;;;9.00;4.68;;;;;;;;;;5054717;28;20023;-65
2023/03/21 22:38:42;;;;;;;7.80;3.53;;;;;;;;;;5054938;28;20039;-65
2023/03/21 22:41:10;;;;;;;11.50;3.60;;;;;;;;;;5055075;28;20035;-65
2023/03/21 22:43:36;;;;;;;6.43;3.28;;;;;;;;;;5054988;28;20074;-65
2023/03/21 22:46:03;;;;;;;7.93;3.42;;;;;;;;;;5054758;28;20492;-65
2023/03/21 22:48:30;;;;;;;9.93;5.30;;;;;;;;;;5054409;28;20037;-65
2023/03/21 22:50:57;;;;;;;11.73;5.50;;;;;;;;;;5054650;28;20027;-65
2023/03/21 22:53:24;;;;;;;7.47;4.80;;;;;;;;;;5054948;28;20029;-65
2023/03/21 22:55:50;;;;;;;7.40;4.38;;;;;;;;;;5054617;28;20386;-65
2023/03/21 22:58:16;;;;;;;9.60;4.30;;;;;;;;;;5054368;28;20040;-65
2023/03/21 23:00:43;;;;;;;6.95;4.13;;;;;;;;;;5034767;28;20017;-65
2023/03/21 23:03:09;;;;;;;6.80;3.72;;;;;;;;;;5034535;28;20115;-65
2023/03/21 23:05:40;;;;;;;8.23;4.13;;;;;;;;;;5034429;28;20014;-65
2023/03/21 23:08:06;;;;;;;8.05;3.97;;;;;;;;;;5034385;28;20013;-65
2023/03/21 23:10:32;;;;;;;8.20;4.05;;;;;;;;;;5034446;28;20375;-65
2023/03/21 23:12:58;;;;;;;11.80;3.85;;;;;;;;;;5034409;28;20028;-65
2023/03/21 23:15:25;;;;;;;11.20;3.67;;;;;;;;;;5034374;28;20018;-65
2023/03/21 23:17:51;;;;;;;8.38;3.63;;;;;;;;;;5034617;28;20111;-65
2023/03/21 23:20:17;;;;;;;7.97;3.95;;;;;;;;;;5034097;28;20021;-65
2023/03/21 23:22:44;;;;;;;6.78;3.40;;;;;;;;;;5034509;28;20041;-65
2023/03/21 23:25:10;;;;;;;7.32;4.15;;;;;;;;;;5033771;28;20029;-65
2023/03/21 23:27:37;;;;;;;6.10;3.45;;;;;;;;;;5034172;28;20045;-65
2023/03/21 23:30:07;;;;;;;6.22;3.95;;;;;;;;;;5034198;28;20036;-65
2023/03/21 23:32:33;;;;;;;7.22;4.07;;;;;;;;;;5033895;28;20025;-65
2023/03/21 23:35:00;;;;;;;6.63;3.60;;;;;;;;;;5033811;28;20055;-65
2023/03/21 23:37:28;;;;;;;9.15;3.58;;;;;;;;;;5033887;28;20021;-65
2023/03/21 23:39:55;;;;;;;9.15;5.28;;;;;;;;;;5034093;28;20024;-65
2023/03/21 23:42:22;;;;;;;13.90;6.97;;;;;;;;;;5033783;28;20031;-65
2023/03/21 23:44:48;;;;;;;8.95;5.70;;;;;;;;;;5033968;28;20021;-65
2023/03/21 23:47:14;;;;;;;13.80;7.13;;;;;;;;;;5033807;28;20040;-65
2023/03/21 23:49:43;;;;;;;16.83;8.10;;;;;;;;;;5033634;28;20033;-65
2023/03/21 23:52:10;;;;;;;11.95;6.40;;;;;;;;;;5033804;28;20025;-64
2023/03/21 23:54:36;;;;;;;11.30;5.97;;;;;;;;;;5033570;28;20071;-65
2023/03/21 23:57:03;;;;;;;16.27;7.93;;;;;;;;;;5033551;28;20022;-65
2023/03/21 23:59:29;;;;;;;18.27;8.60;;;;;;;;;;5043200;28;20498;-65
